Logo AVAMET
Benvolgut visitant, si us plau, ingressa Recuperar contrasenya
AVAMET paisatges

Inforatge Sagunt Policia Local

Dades diàries. Acumulats / Últims 30 dies disponibles

Data Temperatura (°C) Humitat rel. (%) Pressió rel. (hPa) Vent (km/h) Precipitació
Mínima Mitjana Màxima Amplitud
tèrmica
Mínima Mitjana Màxima Mínima Mitjana Màxima Predom. Mitjana Ràfega
màxima
Total
(mm)
Índex-n
Mínima Mitjana Màxima Mínima Mitjana Màxima n
0 a 1
P0 max
mm 5'
Dades mensuals acumulades fins l'últim dia disponible
02/2020 6,1 10,1 13,1 14,3 14,2 19,3 26,5 20,4 27 73 94 1.022 1.027 1.033   6,6 48,3 1,4
Dades anuals acumulades fins l'últim dia disponible
2020 2,3 8,4 13,8 12,4 9,6 17,2 26,5 24,2 27 72 94 1.017 1.027 1.035   8,5 77,2 79,6
Últims 30 dies disponibles
17-02-2020 8,9     12,1     15,7 6,8 75 89 94 1.025 1.027 1.031 WNW 5,8 22,5 0,0
16-02-2020 9,6     12,1     15,5 5,9 75 86 91 1.026 1.028 1.030 WNW 5,3 17,7 0,0
15-02-2020 8,8     12,9     16,5 7,7 67 79 90 1.026 1.028 1.030 WNW 6,4 24,1 0,0
14-02-2020 12,3     16,0     20,3 8,0 46 65 85 1.025 1.026 1.028 WNW 7,6 25,7 0,0
13-02-2020 9,2     13,3     16,9 7,7 75 85 91 1.022 1.024 1.025 WNW 4,3 16,1 0,0
12-02-2020 12,1     14,6     18,1 6,0 62 79 89 1.025 1.026 1.028 WNW 7,2 29,0 0,0
11-02-2020 11,9     15,9     21,7 9,8 44 63 85 1.023 1.025 1.027 WNW 4,7 16,1 0,0
10-02-2020 8,9     15,3     22,9 14,0 47 70 90 1.027 1.029 1.032 SE 6,0 20,9 0,0
09-02-2020 8,3     12,0     16,1 7,8 67 81 88 1.029 1.031 1.033 WNW 6,3 20,9 0,0
08-02-2020 7,7     11,3     15,2 7,5 68 81 88 1.025 1.027 1.029 WNW 6,3 20,9 0,0
07-02-2020 9,7     11,9     14,2 4,5 70 78 85 1.025 1.027 1.028 WNW 4,7 19,3 0,0
06-02-2020 6,1     10,8     15,4 9,3 63 78 88 1.027 1.029 1.031 WNW 7,4 25,7 0,0
05-02-2020 8,6     11,9     17,2 8,6 42 75 91 1.029 1.031 1.033 NNW 7,1 30,6 1,4
04-02-2020 13,1     20,1     26,5 13,4 27 46 75 1.023 1.026 1.028 WNW 13,7 48,3 0,0
03-02-2020 11,4     17,0     26,4 15,0 38 68 83 1.028 1.029 1.031 WSW 5,6 24,1 0,0
02-02-2020 12,3     17,6     24,1 11,8 45 66 84 1.027 1.029 1.030 SW 6,4 25,7 0,0
01-02-2020 12,7     18,6     26,2 13,5 39 59 78 1.022 1.024 1.028 WNW 7,7 38,6 0,0
31-01-2020 12,8     16,6     22,2 9,4 48 66 82 1.022 1.023 1.024 S 5,1 35,4 0,0
30-01-2020 12,1     16,3     22,1 10,0 39 61 75 1.020 1.022 1.024 WSW 7,6 43,5 0,0
29-01-2020 13,8     17,2     21,9 8,1 50 65 76 1.022 1.023 1.024 SW 10,5 29,0 0,0
28-01-2020 13,3     16,2     18,6 5,3 59 65 76 1.020 1.022 1.023 SW 17,2 45,1 0,0
27-01-2020 5,8     11,9     17,7 11,9 48 65 84 1.020 1.023 1.026 WSW 13,7 43,5 0,0
26-01-2020 8,6     12,1     15,9 7,3 69 81 91 1.020 1.022 1.026 WNW 5,1 20,9 0,0
25-01-2020 10,7     12,2     14,3 3,6 77 85 91 1.019 1.021 1.023 WNW 5,5 25,7 0,0
24-01-2020 9,3     11,7     15,7 6,4 65 82 90 1.022 1.024 1.025 WNW 5,8 19,3 0,0
23-01-2020 7,1     10,8     14,7 7,6 66 80 90 1.022 1.024 1.025 WNW 4,8 24,1 0,0
22-01-2020 9,1     11,6     14,8 5,7 NNE 12,4 37,0 1,0
21-01-2020 6,8     10,0     13,0 6,2 NNE 19,6 75,6 24,6
20-01-2020 4,5     6,3     9,6 5,1 59 83 93 1.021 1.022 1.023 NNE 33,2 77,2 33,2
19-01-2020 5,9     9,2     13,8 7,9 55 80 94 1.017 1.019 1.023 NNE 19,2 72,4 19,4
Últims 13 mesos disponibles
01/2020 2,3 7,4 13,8 11,3 9,6 16,0 22,2 19,9 55 72 85 1.019 1.027 1.034 WNW 9,6 77,2 78,2
12/2019 5,2 10,3 17,2 13,8 12,3 17,9 25,1 19,9 43 70 95 1.003 1.020 1.034 WNW 11,0 107,8 66,0
11/2019 6,0 12,0 20,8 16,0 15,6 20,3 28,8 22,8 41 54 77 999 1.011 1.019 WNW 13,9 77,2 2,6
10/2019 11,1 16,5 21,7 20,4 16,8 24,5 28,4 17,3 45 68 83 1.009 1.019 1.023 WNW 8,4 66,0 23,2
09/2019 14,8 20,2 23,1 23,5 21,3 26,8 31,2 16,4 52 72 83 1.011 1.019 1.021 S 9,1 69,3 125,8
08/2019 17,9 22,5 25,7 25,9 26,1 29,4 41,7 23,8 52 71 80 1.012 1.017 1.021 SSE 8,2 56,3 25,4
07/2019 21,3 22,8 24,7 26,2 27,2 29,6 35,5 14,2 52 67 78 1.006 1.015 1.023 SSE 8,7 56,3 16,4
06/2019 12,9 18,0 22,4 22,1 20,3 25,6 34,2 21,3 41 66 82 1.009 1.016 1.023 SSE 9,1 63,0 0,0
05/2019 10,6 14,6 17,9 18,2 17,6 21,9 33,0 22,4 49 67 85 1.005 1.016 1.025 S 9,7 68,5 18,4
04/2019 8,3 11,6 14,6 15,2 15,4 19,3 27,2 18,9 43 65 93 1.000 1.014 1.026 OSO 13,0 79,6 37,2
03/2019 7,2 9,7 15,2 14,2 12,5 18,5 27,5 20,3 42 60 85 1.012 1.024 1.031 S 9,1 64,8 22,0
02/2019 3,3 7,4 11,1 12,0 13,8 16,8 22,6 19,3 30 63 76 994 1.025 1.035 SO 9,5 98,2 0,0
01/2019 3,0 6,8 12,1 11,4 11,1 16,1 20,7 17,7 39 57 76 1.002 1.019 1.031 OSO 10,1 88,9 0,4
Tots els anys disponibles
2019 3,0 14,4 25,7 18,3 11,1 22,2 41,7 38,7 30 65 95 994 1.018 1.035 SSO 10,0 107,8 337,4
Temperatura (°C)
Humitat relativa (%)
Velocitat del vent i ràfega màxima (km/h)
Direcció del vent (°)
Pressió (hPa)
Precipitació (mm)
Nota sobre les dades: s'avisa a l'usuari de la provisionalitat i no oficialitat d'aquestes dades
Logo AVAMET blanc
Web allotjada a Sollutia
Llicència de Creative CommonsLa web d'AVAMET i els seus continguts estan subjectes a una llicència de
Reconeixement - No Comercial - Compartir igual
Últimes estacions:  Sorita (AVAMET), Gorga (Soci), Massalavés - Ajuntament (Soci/Inforatge), Albuixech - Polígon (Inforatge), La Torre d'en Besora (Ajuntament soci), Xixona - Sogorb Barranc Blanc (Soci), Pedreguer - Patronat (Soci) - - -